Terminal Aerodrome Forecast
Issued by NWS La Crosse, WI

Home | Current Version | Previous Version | Text Only | Print | Product List | Glossary On
Versions: 1 2 3 4 5 6 7 8 9 10 11 12 13 14 15 16 17 18 19 20 21 22 23 24 25 26 27 28 29
201
FTUS43 KARX 080520
TAFLSE
TAF
KLSE 080520Z 0806/0906 18016G28KT P6SM SCT200 WS020/22055KT
     FM081100 19011KT P6SM SCT250 WS020/25045KT
     FM081300 20008KT P6SM BKN250
     FM081800 28007KT P6SM SCT020 BKN250
     FM082100 VRB04KT P6SM OVC015
     FM090400 VRB03KT P6SM SCT007 OVC010=

USA.gov is the U.S. government's official web portal to all federal, state and local government web resources and services.